DLH9PZ LIRF-EDDF
Flight info
| Callsign | DLH9PZ |
|---|---|
| Flight time | 1h 20m |
| Altitude | 36000 |
| Route | SOVAN DCT AMTEL DCT BORMI DCT OZE DCT NAXAV DCT UNIMI L12 MOGTI Q163 ETASA T163 SPESA SPESA5B |
| Aircraft | A321/M-SDE3FGHIRWY/LB1 |
Departure
| Time | 2026-05-06 07:16 |
|---|---|
| Airport | Rome–Fiumicino Leonardo da Vinci International Airport (LIRF) |
Arrival
| Time | 2026-05-06 08:37 |
|---|---|
| Airport | Frankfurt Main Airport (EDDF) |
| Time | Latitude | Longitude | Altitude | Speed | Heading |
|---|---|---|---|---|---|
| 2026-05-06 06:41 | 41.79725 | 12.25644 | 17 ft | 0 kts | 295° |
| 2026-05-06 07:05 | 41.79721 | 12.25655 | 15 ft | 4 kts | 295° |
| 2026-05-06 07:05 | 41.79712 | 12.25681 | 16 ft | 4 kts | 308° |
| 2026-05-06 07:06 | 41.79693 | 12.25696 | 16 ft | 4 kts | 10° |
| 2026-05-06 07:06 | 41.79678 | 12.25690 | 16 ft | 0 kts | 25° |
| 2026-05-06 07:06 | 41.79699 | 12.25703 | 17 ft | 4 kts | 25° |
| 2026-05-06 07:06 | 41.79724 | 12.25719 | 15 ft | 4 kts | 25° |
| 2026-05-06 07:07 | 41.79748 | 12.25734 | 14 ft | 4 kts | 25° |
| 2026-05-06 07:07 | 41.79773 | 12.25750 | 14 ft | 4 kts | 25° |
| 2026-05-06 07:07 | 41.79792 | 12.25762 | 15 ft | 0 kts | 25° |
| 2026-05-06 07:12 | 41.79793 | 12.25763 | 14 ft | 1 kts | 25° |
| 2026-05-06 07:12 | 41.79836 | 12.25791 | 14 ft | 12 kts | 31° |
| 2026-05-06 07:12 | 41.79916 | 12.25850 | 14 ft | 14 kts | 25° |
| 2026-05-06 07:12 | 41.80006 | 12.25905 | 14 ft | 15 kts | 25° |
| 2026-05-06 07:13 | 41.80102 | 12.25965 | 14 ft | 16 kts | 25° |
| 2026-05-06 07:13 | 41.80203 | 12.26028 | 14 ft | 17 kts | 25° |
| 2026-05-06 07:13 | 41.80311 | 12.26094 | 15 ft | 17 kts | 24° |
| 2026-05-06 07:13 | 41.80422 | 12.26162 | 16 ft | 17 kts | 24° |
| 2026-05-06 07:14 | 41.80523 | 12.26227 | 16 ft | 17 kts | 62° |
| 2026-05-06 07:14 | 41.80567 | 12.26379 | 16 ft | 18 kts | 70° |
| 2026-05-06 07:14 | 41.80611 | 12.26541 | 17 ft | 19 kts | 70° |
| 2026-05-06 07:14 | 41.80657 | 12.26709 | 15 ft | 20 kts | 70° |
| 2026-05-06 07:15 | 41.80705 | 12.26883 | 16 ft | 19 kts | 70° |
| 2026-05-06 07:15 | 41.80761 | 12.27034 | 13 ft | 18 kts | 31° |
| 2026-05-06 07:15 | 41.80878 | 12.27008 | 13 ft | 17 kts | 341° |
| 2026-05-06 07:15 | 41.80953 | 12.26919 | 13 ft | 17 kts | 265° |
| 2026-05-06 07:16 | 41.80863 | 12.26591 | 18 ft | 70 kts | 249° |
| 2026-05-06 07:16 | 41.80612 | 12.25678 | 18 ft | 137 kts | 250° |
| 2026-05-06 07:16 | 41.80221 | 12.24256 | 58 ft | 182 kts | 246° |
| 2026-05-06 07:16 | 41.79809 | 12.22694 | 797 ft | 176 kts | 245° |
| 2026-05-06 07:17 | 41.79395 | 12.21155 | 1446 ft | 179 kts | 249° |
| 2026-05-06 07:17 | 41.79344 | 12.19368 | 1758 ft | 208 kts | 277° |
| 2026-05-06 07:17 | 41.80016 | 12.17579 | 2202 ft | 222 kts | 304° |
| 2026-05-06 07:17 | 41.80984 | 12.15965 | 2822 ft | 221 kts | 304° |
| 2026-05-06 07:18 | 41.81939 | 12.14365 | 3457 ft | 218 kts | 303° |
| 2026-05-06 07:18 | 41.82880 | 12.12779 | 4057 ft | 217 kts | 303° |
| 2026-05-06 07:18 | 41.83859 | 12.11244 | 4657 ft | 218 kts | 313° |
| 2026-05-06 07:18 | 41.85142 | 12.10115 | 5184 ft | 227 kts | 331° |
| 2026-05-06 07:19 | 41.86727 | 12.09435 | 5333 ft | 251 kts | 340° |
| 2026-05-06 07:19 | 41.88477 | 12.08784 | 5573 ft | 271 kts | 341° |
| 2026-05-06 07:19 | 41.90323 | 12.08105 | 6185 ft | 277 kts | 341° |
| 2026-05-06 07:19 | 41.92187 | 12.07424 | 6907 ft | 278 kts | 341° |
| 2026-05-06 07:20 | 41.94059 | 12.06733 | 7591 ft | 280 kts | 340° |
| 2026-05-06 07:20 | 41.95966 | 12.06108 | 8260 ft | 286 kts | 348° |
| 2026-05-06 07:20 | 41.97974 | 12.05889 | 8933 ft | 291 kts | 351° |
| 2026-05-06 07:20 | 42.00013 | 12.05695 | 9575 ft | 296 kts | 352° |
| 2026-05-06 07:21 | 42.02082 | 12.05496 | 10187 ft | 302 kts | 352° |
| 2026-05-06 07:21 | 42.04250 | 12.05280 | 10341 ft | 324 kts | 352° |
| 2026-05-06 07:21 | 42.06569 | 12.05047 | 10470 ft | 344 kts | 352° |
| 2026-05-06 07:21 | 42.09020 | 12.04805 | 10612 ft | 361 kts | 352° |
| 2026-05-06 07:22 | 42.11559 | 12.04559 | 11025 ft | 369 kts | 352° |
| 2026-05-06 07:22 | 42.14132 | 12.04314 | 11573 ft | 373 kts | 352° |
| 2026-05-06 07:22 | 42.16734 | 12.04064 | 12134 ft | 377 kts | 352° |
| 2026-05-06 07:22 | 42.19347 | 12.03684 | 12680 ft | 379 kts | 347° |
| 2026-05-06 07:23 | 42.21960 | 12.03096 | 13274 ft | 383 kts | 347° |
| 2026-05-06 07:23 | 42.24601 | 12.02504 | 13877 ft | 386 kts | 347° |
| 2026-05-06 07:23 | 42.27260 | 12.01905 | 14382 ft | 389 kts | 347° |
| 2026-05-06 07:23 | 42.29944 | 12.01298 | 14864 ft | 393 kts | 347° |
| 2026-05-06 07:24 | 42.32647 | 12.00686 | 15359 ft | 395 kts | 347° |
| 2026-05-06 07:24 | 42.35371 | 12.00069 | 15859 ft | 398 kts | 347° |
| 2026-05-06 07:24 | 42.38113 | 11.99448 | 16369 ft | 401 kts | 347° |
| 2026-05-06 07:24 | 42.40877 | 11.98825 | 16863 ft | 404 kts | 347° |
| 2026-05-06 07:25 | 42.43663 | 11.98201 | 17337 ft | 407 kts | 347° |
| 2026-05-06 07:25 | 42.46471 | 11.97571 | 17807 ft | 410 kts | 347° |
| 2026-05-06 07:25 | 42.49296 | 11.96934 | 18290 ft | 413 kts | 347° |
| 2026-05-06 07:25 | 42.52144 | 11.96291 | 18681 ft | 416 kts | 347° |
| 2026-05-06 07:26 | 42.55009 | 11.95644 | 19077 ft | 418 kts | 347° |
| 2026-05-06 07:26 | 42.57886 | 11.94993 | 19484 ft | 420 kts | 347° |
| 2026-05-06 07:26 | 42.60781 | 11.94334 | 19918 ft | 423 kts | 347° |
| 2026-05-06 07:26 | 42.63689 | 11.93672 | 20331 ft | 425 kts | 347° |
| 2026-05-06 07:27 | 42.66614 | 11.93009 | 20719 ft | 427 kts | 347° |
| 2026-05-06 07:27 | 42.69556 | 11.92339 | 21118 ft | 430 kts | 347° |
| 2026-05-06 07:27 | 42.72509 | 11.91664 | 21515 ft | 432 kts | 347° |
| 2026-05-06 07:27 | 42.75478 | 11.90984 | 21903 ft | 434 kts | 347° |
| 2026-05-06 07:28 | 42.78464 | 11.90301 | 22280 ft | 436 kts | 347° |
| 2026-05-06 07:28 | 42.81455 | 11.89574 | 22662 ft | 437 kts | 343° |
| 2026-05-06 07:28 | 42.87064 | 11.86553 | 23366 ft | 434 kts | 327° |
| 2026-05-06 07:29 | 42.89727 | 11.84590 | 23704 ft | 436 kts | 327° |
| 2026-05-06 07:29 | 42.92405 | 11.82623 | 24007 ft | 438 kts | 327° |
| 2026-05-06 07:29 | 42.95099 | 11.80651 | 24320 ft | 440 kts | 328° |
| 2026-05-06 07:29 | 42.97805 | 11.78675 | 24635 ft | 442 kts | 328° |
| 2026-05-06 07:30 | 43.00525 | 11.76689 | 24943 ft | 444 kts | 327° |
| 2026-05-06 07:30 | 43.03251 | 11.74691 | 25261 ft | 446 kts | 327° |
| 2026-05-06 07:30 | 43.05991 | 11.72679 | 25563 ft | 448 kts | 327° |
| 2026-05-06 07:30 | 43.08741 | 11.70657 | 25857 ft | 450 kts | 327° |
| 2026-05-06 07:31 | 43.11501 | 11.68625 | 26165 ft | 452 kts | 327° |
| 2026-05-06 07:31 | 43.14273 | 11.66583 | 26465 ft | 454 kts | 326° |
| 2026-05-06 07:31 | 43.17061 | 11.64526 | 26730 ft | 456 kts | 326° |
| 2026-05-06 07:31 | 43.19893 | 11.62536 | 27007 ft | 461 kts | 331° |
| 2026-05-06 07:32 | 43.22945 | 11.61054 | 27288 ft | 470 kts | 340° |
| 2026-05-06 07:32 | 43.26183 | 11.60220 | 27554 ft | 478 kts | 348° |
| 2026-05-06 07:32 | 43.29504 | 11.59733 | 27778 ft | 481 kts | 348° |
| 2026-05-06 07:32 | 43.32834 | 11.59241 | 28033 ft | 482 kts | 348° |
| 2026-05-06 07:33 | 43.36178 | 11.58742 | 28269 ft | 484 kts | 348° |
| 2026-05-06 07:33 | 43.39531 | 11.58237 | 28486 ft | 486 kts | 348° |
| 2026-05-06 07:33 | 43.42897 | 11.57729 | 28677 ft | 487 kts | 348° |
| 2026-05-06 07:33 | 43.46269 | 11.57219 | 28908 ft | 488 kts | 348° |
| 2026-05-06 07:34 | 43.49643 | 11.56709 | 29199 ft | 488 kts | 348° |
| 2026-05-06 07:34 | 43.53015 | 11.56201 | 29509 ft | 487 kts | 348° |
| 2026-05-06 07:34 | 43.56387 | 11.55694 | 29792 ft | 487 kts | 348° |
| 2026-05-06 07:34 | 43.59750 | 11.55190 | 30091 ft | 486 kts | 348° |
| 2026-05-06 07:35 | 43.63115 | 11.54684 | 30346 ft | 486 kts | 348° |
| 2026-05-06 07:35 | 43.66474 | 11.54177 | 30612 ft | 485 kts | 347° |
| 2026-05-06 07:35 | 43.69830 | 11.53664 | 30856 ft | 485 kts | 347° |
| 2026-05-06 07:35 | 43.73184 | 11.53150 | 31120 ft | 485 kts | 347° |
| 2026-05-06 07:36 | 43.76538 | 11.52640 | 31385 ft | 485 kts | 347° |
| 2026-05-06 07:36 | 43.79890 | 11.52131 | 31650 ft | 484 kts | 347° |
| 2026-05-06 07:36 | 43.83239 | 11.51622 | 31897 ft | 484 kts | 347° |
| 2026-05-06 07:36 | 43.86584 | 11.51112 | 32165 ft | 483 kts | 347° |
| 2026-05-06 07:37 | 43.89917 | 11.50602 | 32457 ft | 482 kts | 347° |
| 2026-05-06 07:37 | 43.93248 | 11.50093 | 32736 ft | 481 kts | 347° |
| 2026-05-06 07:37 | 43.96573 | 11.49586 | 33015 ft | 481 kts | 347° |
| 2026-05-06 07:37 | 43.99899 | 11.49078 | 33288 ft | 480 kts | 347° |
| 2026-05-06 07:38 | 44.03217 | 11.48567 | 33526 ft | 480 kts | 347° |
| 2026-05-06 07:38 | 44.06535 | 11.48056 | 33820 ft | 480 kts | 347° |
| 2026-05-06 07:38 | 44.09853 | 11.47540 | 34033 ft | 479 kts | 347° |
| 2026-05-06 07:38 | 44.13168 | 11.47025 | 34195 ft | 479 kts | 347° |
| 2026-05-06 07:39 | 44.16481 | 11.46513 | 34376 ft | 479 kts | 347° |
| 2026-05-06 07:39 | 44.19793 | 11.46003 | 34556 ft | 479 kts | 347° |
| 2026-05-06 07:39 | 44.21988 | 11.45668 | 34660 ft | 479 kts | 347° |
| 2026-05-06 07:39 | 44.25299 | 11.45159 | 34850 ft | 478 kts | 347° |
| 2026-05-06 07:40 | 44.28608 | 11.44647 | 35044 ft | 478 kts | 347° |
| 2026-05-06 07:40 | 44.31904 | 11.44136 | 35210 ft | 477 kts | 347° |
| 2026-05-06 07:40 | 44.35200 | 11.43618 | 35394 ft | 476 kts | 347° |
| 2026-05-06 07:40 | 44.38538 | 11.43094 | 35589 ft | 477 kts | 347° |
| 2026-05-06 07:41 | 44.41795 | 11.42583 | 35799 ft | 477 kts | 347° |
| 2026-05-06 07:41 | 44.45100 | 11.42067 | 35895 ft | 477 kts | 347° |
| 2026-05-06 07:41 | 44.51701 | 11.41051 | 35892 ft | 477 kts | 347° |
| 2026-05-06 07:42 | 44.58304 | 11.40026 | 35892 ft | 477 kts | 347° |
| 2026-05-06 07:42 | 44.64905 | 11.38993 | 35912 ft | 477 kts | 347° |
| 2026-05-06 07:43 | 44.71516 | 11.37944 | 35910 ft | 480 kts | 347° |
| 2026-05-06 07:43 | 44.78158 | 11.36895 | 35924 ft | 481 kts | 347° |
| 2026-05-06 07:44 | 44.84811 | 11.35840 | 35949 ft | 482 kts | 347° |
| 2026-05-06 07:44 | 44.91477 | 11.34791 | 35956 ft | 482 kts | 347° |
| 2026-05-06 07:45 | 44.98141 | 11.33744 | 35948 ft | 482 kts | 347° |
| 2026-05-06 07:45 | 45.04810 | 11.32689 | 35958 ft | 482 kts | 347° |
| 2026-05-06 07:46 | 45.11483 | 11.31621 | 35946 ft | 482 kts | 346° |
| 2026-05-06 07:46 | 45.18153 | 11.30542 | 35946 ft | 483 kts | 346° |
| 2026-05-06 07:47 | 45.24830 | 11.29470 | 35966 ft | 483 kts | 346° |
| 2026-05-06 07:47 | 45.31514 | 11.28407 | 35961 ft | 484 kts | 346° |
| 2026-05-06 07:48 | 45.38198 | 11.27328 | 35952 ft | 483 kts | 346° |
| 2026-05-06 07:48 | 45.44880 | 11.26243 | 35955 ft | 483 kts | 346° |
| 2026-05-06 07:49 | 45.51568 | 11.25162 | 35947 ft | 484 kts | 346° |
| 2026-05-06 07:49 | 45.58273 | 11.24083 | 35943 ft | 485 kts | 346° |
| 2026-05-06 07:50 | 45.64979 | 11.23006 | 35968 ft | 486 kts | 347° |
| 2026-05-06 07:50 | 45.71687 | 11.21906 | 35959 ft | 485 kts | 347° |
| 2026-05-06 07:51 | 45.78387 | 11.20805 | 35967 ft | 485 kts | 347° |
| 2026-05-06 07:51 | 45.85095 | 11.19705 | 35961 ft | 485 kts | 347° |
| 2026-05-06 07:52 | 45.91799 | 11.18603 | 35967 ft | 485 kts | 347° |
| 2026-05-06 07:52 | 45.98505 | 11.17510 | 35973 ft | 485 kts | 347° |
| 2026-05-06 07:53 | 46.05295 | 11.17397 | 35995 ft | 496 kts | 3° |
| 2026-05-06 07:53 | 46.12075 | 11.19509 | 36005 ft | 499 kts | 9° |
| 2026-05-06 07:54 | 46.18830 | 11.21819 | 36004 ft | 498 kts | 9° |
| 2026-05-06 07:54 | 46.25556 | 11.24115 | 36005 ft | 496 kts | 9° |
| 2026-05-06 07:55 | 46.32288 | 11.26408 | 35945 ft | 497 kts | 9° |
| 2026-05-06 07:55 | 46.39020 | 11.28714 | 35950 ft | 497 kts | 9° |
| 2026-05-06 07:56 | 46.45801 | 11.29890 | 35970 ft | 485 kts | 352° |
| 2026-05-06 07:56 | 46.52325 | 11.28191 | 35967 ft | 471 kts | 335° |
| 2026-05-06 07:57 | 46.58306 | 11.24550 | 35952 ft | 465 kts | 329° |
| 2026-05-06 07:57 | 46.64222 | 11.20729 | 35967 ft | 466 kts | 329° |
| 2026-05-06 07:58 | 46.70147 | 11.16889 | 35963 ft | 466 kts | 329° |
| 2026-05-06 07:58 | 46.76062 | 11.13045 | 35961 ft | 465 kts | 329° |
| 2026-05-06 07:59 | 46.81968 | 11.09201 | 35948 ft | 465 kts | 329° |
| 2026-05-06 07:59 | 46.87868 | 11.05346 | 35927 ft | 464 kts | 329° |
| 2026-05-06 08:00 | 46.93734 | 11.01427 | 35889 ft | 463 kts | 329° |
| 2026-05-06 08:00 | 46.99612 | 10.97508 | 35883 ft | 465 kts | 329° |
| 2026-05-06 08:01 | 47.05523 | 10.93658 | 35855 ft | 464 kts | 330° |
| 2026-05-06 08:01 | 47.11441 | 10.89806 | 35842 ft | 465 kts | 330° |
| 2026-05-06 08:02 | 47.17363 | 10.85915 | 35834 ft | 468 kts | 330° |
| 2026-05-06 08:02 | 47.23308 | 10.82000 | 35830 ft | 468 kts | 330° |
| 2026-05-06 08:03 | 47.29267 | 10.78065 | 35845 ft | 471 kts | 330° |
| 2026-05-06 08:03 | 47.35250 | 10.74101 | 35830 ft | 472 kts | 329° |
| 2026-05-06 08:04 | 47.41266 | 10.70163 | 35807 ft | 474 kts | 331° |
| 2026-05-06 08:04 | 47.47419 | 10.66546 | 35814 ft | 477 kts | 333° |
| 2026-05-06 08:05 | 47.53676 | 10.63042 | 35834 ft | 478 kts | 333° |
| 2026-05-06 08:05 | 47.59871 | 10.59487 | 35837 ft | 477 kts | 333° |
| 2026-05-06 08:06 | 47.66004 | 10.55864 | 35840 ft | 477 kts | 332° |
| 2026-05-06 08:06 | 47.72165 | 10.52199 | 35838 ft | 476 kts | 332° |
| 2026-05-06 08:07 | 47.78320 | 10.48566 | 35837 ft | 476 kts | 332° |
| 2026-05-06 08:07 | 47.84471 | 10.44931 | 35844 ft | 476 kts | 332° |
| 2026-05-06 08:08 | 47.90619 | 10.41280 | 35851 ft | 476 kts | 332° |
| 2026-05-06 08:08 | 47.96766 | 10.37613 | 35836 ft | 476 kts | 332° |
| 2026-05-06 08:09 | 48.02916 | 10.33947 | 35841 ft | 475 kts | 332° |
| 2026-05-06 08:09 | 48.09052 | 10.30281 | 35859 ft | 475 kts | 332° |
| 2026-05-06 08:10 | 48.15180 | 10.26602 | 35837 ft | 473 kts | 332° |
| 2026-05-06 08:10 | 48.21115 | 10.22516 | 35838 ft | 463 kts | 321° |
| 2026-05-06 08:11 | 48.26188 | 10.16726 | 35848 ft | 457 kts | 314° |
| 2026-05-06 08:11 | 48.31137 | 10.10720 | 35851 ft | 457 kts | 315° |
| 2026-05-06 08:12 | 48.36090 | 10.04711 | 35849 ft | 457 kts | 314° |
| 2026-05-06 08:12 | 48.41031 | 9.98684 | 35844 ft | 457 kts | 314° |
| 2026-05-06 08:13 | 48.45975 | 9.92646 | 35857 ft | 458 kts | 315° |
| 2026-05-06 08:13 | 48.50920 | 9.86597 | 35833 ft | 458 kts | 315° |
| 2026-05-06 08:14 | 48.55861 | 9.80524 | 35821 ft | 458 kts | 314° |
| 2026-05-06 08:14 | 48.60799 | 9.74435 | 35812 ft | 458 kts | 314° |
| 2026-05-06 08:15 | 48.63248 | 9.71362 | 35477 ft | 459 kts | 316° |
| 2026-05-06 08:15 | 48.65998 | 9.68833 | 34339 ft | 469 kts | 332° |
| 2026-05-06 08:15 | 48.69208 | 9.67548 | 33248 ft | 487 kts | 346° |
| 2026-05-06 08:15 | 48.72553 | 9.66737 | 32511 ft | 487 kts | 345° |
| 2026-05-06 08:16 | 48.75896 | 9.65868 | 31789 ft | 488 kts | 345° |
| 2026-05-06 08:16 | 48.79246 | 9.64948 | 31079 ft | 491 kts | 345° |
| 2026-05-06 08:16 | 48.82616 | 9.63993 | 30395 ft | 494 kts | 345° |
| 2026-05-06 08:16 | 48.86002 | 9.63025 | 29688 ft | 497 kts | 345° |
| 2026-05-06 08:17 | 48.89403 | 9.62060 | 28892 ft | 499 kts | 346° |
| 2026-05-06 08:17 | 48.92817 | 9.61109 | 28107 ft | 498 kts | 346° |
| 2026-05-06 08:17 | 48.96208 | 9.60172 | 27375 ft | 492 kts | 346° |
| 2026-05-06 08:17 | 48.99550 | 9.59255 | 26765 ft | 485 kts | 346° |
| 2026-05-06 08:18 | 49.02852 | 9.58351 | 26169 ft | 479 kts | 346° |
| 2026-05-06 08:18 | 49.06108 | 9.57453 | 25588 ft | 472 kts | 346° |
| 2026-05-06 08:18 | 49.09320 | 9.56562 | 25020 ft | 467 kts | 346° |
| 2026-05-06 08:18 | 49.12500 | 9.55679 | 24459 ft | 461 kts | 346° |
| 2026-05-06 08:19 | 49.14586 | 9.55098 | 24095 ft | 462 kts | 346° |
| 2026-05-06 08:19 | 49.17752 | 9.54213 | 23530 ft | 463 kts | 346° |
| 2026-05-06 08:19 | 49.20910 | 9.53329 | 22892 ft | 459 kts | 346° |
| 2026-05-06 08:19 | 49.24042 | 9.52457 | 22234 ft | 455 kts | 347° |
| 2026-05-06 08:20 | 49.27140 | 9.51592 | 21595 ft | 450 kts | 347° |
| 2026-05-06 08:20 | 49.30208 | 9.50730 | 20968 ft | 447 kts | 347° |
| 2026-05-06 08:20 | 49.33253 | 9.49875 | 20354 ft | 443 kts | 347° |
| 2026-05-06 08:20 | 49.36275 | 9.49027 | 19758 ft | 439 kts | 347° |
| 2026-05-06 08:21 | 49.39270 | 9.48181 | 19164 ft | 436 kts | 347° |
| 2026-05-06 08:21 | 49.42240 | 9.47341 | 18591 ft | 432 kts | 347° |
| 2026-05-06 08:21 | 49.45183 | 9.46515 | 18018 ft | 429 kts | 347° |
| 2026-05-06 08:21 | 49.48112 | 9.45697 | 17365 ft | 426 kts | 347° |
| 2026-05-06 08:22 | 49.51009 | 9.44885 | 16726 ft | 422 kts | 347° |
| 2026-05-06 08:22 | 49.53889 | 9.44070 | 16118 ft | 419 kts | 347° |
| 2026-05-06 08:22 | 49.56730 | 9.43264 | 15502 ft | 410 kts | 347° |
| 2026-05-06 08:22 | 49.59478 | 9.42478 | 14898 ft | 394 kts | 347° |
| 2026-05-06 08:23 | 49.62121 | 9.41711 | 14316 ft | 380 kts | 347° |
| 2026-05-06 08:23 | 49.64677 | 9.40979 | 13740 ft | 368 kts | 347° |
| 2026-05-06 08:23 | 49.67157 | 9.40276 | 13141 ft | 356 kts | 347° |
| 2026-05-06 08:23 | 49.69542 | 9.39606 | 12739 ft | 341 kts | 347° |
| 2026-05-06 08:24 | 49.71826 | 9.38971 | 12342 ft | 327 kts | 347° |
| 2026-05-06 08:24 | 49.74024 | 9.38367 | 11958 ft | 315 kts | 347° |
| 2026-05-06 08:24 | 49.76168 | 9.37779 | 11580 ft | 311 kts | 347° |
| 2026-05-06 08:24 | 49.78289 | 9.37191 | 11197 ft | 308 kts | 347° |
| 2026-05-06 08:25 | 49.80394 | 9.36608 | 10825 ft | 306 kts | 347° |
| 2026-05-06 08:25 | 49.82477 | 9.36016 | 10460 ft | 303 kts | 345° |
| 2026-05-06 08:25 | 49.84528 | 9.35311 | 10094 ft | 301 kts | 344° |
| 2026-05-06 08:25 | 49.86563 | 9.34586 | 9725 ft | 299 kts | 344° |
| 2026-05-06 08:26 | 49.88587 | 9.33866 | 9334 ft | 298 kts | 344° |
| 2026-05-06 08:26 | 49.90600 | 9.33152 | 8927 ft | 296 kts | 344° |
| 2026-05-06 08:26 | 49.92600 | 9.32445 | 8550 ft | 294 kts | 344° |
| 2026-05-06 08:26 | 49.94586 | 9.31743 | 8161 ft | 292 kts | 344° |
| 2026-05-06 08:27 | 49.96565 | 9.31052 | 7781 ft | 289 kts | 344° |
| 2026-05-06 08:27 | 49.98522 | 9.30380 | 7404 ft | 288 kts | 344° |
| 2026-05-06 08:27 | 50.00466 | 9.29669 | 7028 ft | 285 kts | 338° |
| 2026-05-06 08:27 | 50.02147 | 9.28193 | 6666 ft | 275 kts | 317° |
| 2026-05-06 08:28 | 50.03582 | 9.26251 | 6294 ft | 272 kts | 314° |
| 2026-05-06 08:28 | 50.04976 | 9.24276 | 5915 ft | 270 kts | 314° |
| 2026-05-06 08:28 | 50.06355 | 9.22303 | 5532 ft | 268 kts | 313° |
| 2026-05-06 08:28 | 50.07466 | 9.20042 | 5146 ft | 261 kts | 292° |
| 2026-05-06 08:29 | 50.08024 | 9.17394 | 4779 ft | 257 kts | 283° |
| 2026-05-06 08:29 | 50.08508 | 9.14744 | 4527 ft | 252 kts | 283° |
| 2026-05-06 08:29 | 50.08981 | 9.12162 | 4266 ft | 245 kts | 283° |
| 2026-05-06 08:29 | 50.09442 | 9.09647 | 4041 ft | 237 kts | 284° |
| 2026-05-06 08:30 | 50.09883 | 9.07249 | 4011 ft | 225 kts | 283° |
| 2026-05-06 08:30 | 50.10309 | 9.04902 | 4004 ft | 225 kts | 283° |
| 2026-05-06 08:30 | 50.10734 | 9.02557 | 4004 ft | 224 kts | 283° |
| 2026-05-06 08:30 | 50.11157 | 9.00224 | 4004 ft | 224 kts | 283° |
| 2026-05-06 08:31 | 50.11580 | 8.97900 | 4007 ft | 222 kts | 283° |
| 2026-05-06 08:31 | 50.11996 | 8.95601 | 3999 ft | 214 kts | 281° |
| 2026-05-06 08:31 | 50.12099 | 8.93420 | 4000 ft | 191 kts | 261° |
| 2026-05-06 08:31 | 50.11770 | 8.91530 | 4022 ft | 176 kts | 249° |
| 2026-05-06 08:32 | 50.11346 | 8.89720 | 4014 ft | 177 kts | 249° |
| 2026-05-06 08:32 | 50.10931 | 8.87947 | 4007 ft | 177 kts | 249° |
| 2026-05-06 08:32 | 50.10501 | 8.86113 | 3962 ft | 179 kts | 249° |
| 2026-05-06 08:32 | 50.10082 | 8.84333 | 3790 ft | 177 kts | 249° |
| 2026-05-06 08:33 | 50.09656 | 8.82522 | 3572 ft | 177 kts | 249° |
| 2026-05-06 08:33 | 50.09239 | 8.80753 | 3346 ft | 175 kts | 249° |
| 2026-05-06 08:33 | 50.08823 | 8.78988 | 3120 ft | 172 kts | 248° |
| 2026-05-06 08:33 | 50.08403 | 8.77209 | 2871 ft | 173 kts | 249° |
| 2026-05-06 08:34 | 50.07988 | 8.75452 | 2635 ft | 172 kts | 249° |
| 2026-05-06 08:34 | 50.07317 | 8.71848 | 2143 ft | 174 kts | 256° |
| 2026-05-06 08:34 | 50.07075 | 8.70006 | 1937 ft | 172 kts | 256° |
| 2026-05-06 08:35 | 50.06791 | 8.68278 | 1740 ft | 154 kts | 252° |
| 2026-05-06 08:35 | 50.06446 | 8.66778 | 1519 ft | 143 kts | 247° |
| 2026-05-06 08:35 | 50.06087 | 8.65371 | 1255 ft | 137 kts | 246° |
| 2026-05-06 08:35 | 50.05749 | 8.63988 | 1097 ft | 136 kts | 246° |
| 2026-05-06 08:36 | 50.05434 | 8.62594 | 959 ft | 137 kts | 247° |
| 2026-05-06 08:36 | 50.05093 | 8.61206 | 755 ft | 137 kts | 247° |
| 2026-05-06 08:36 | 50.04741 | 8.59818 | 594 ft | 137 kts | 249° |
| 2026-05-06 08:36 | 50.04442 | 8.58415 | 417 ft | 136 kts | 246° |
| 2026-05-06 08:37 | 50.04133 | 8.57120 | 366 ft | 104 kts | 249° |
| 2026-05-06 08:37 | 50.03994 | 8.56510 | 357 ft | 29 kts | 256° |
| 2026-05-06 08:37 | 50.04001 | 8.56259 | 354 ft | 16 kts | 281° |
| 2026-05-06 08:37 | 50.04033 | 8.56151 | 359 ft | 9 kts | 322° |
| 2026-05-06 08:38 | 50.04055 | 8.56137 | 353 ft | 0 kts | 347° |
| 2026-05-06 08:38 | 50.04076 | 8.56142 | 355 ft | 4 kts | 19° |
| 2026-05-06 08:38 | 50.04109 | 8.56206 | 362 ft | 13 kts | 65° |
| 2026-05-06 08:39 | 50.04142 | 8.56342 | 361 ft | 14 kts | 70° |
| 2026-05-06 08:39 | 50.04182 | 8.56509 | 359 ft | 18 kts | 69° |
| 2026-05-06 08:39 | 50.04225 | 8.56691 | 360 ft | 17 kts | 69° |
| 2026-05-06 08:39 | 50.04279 | 8.56801 | 363 ft | 12 kts | 23° |
| 2026-05-06 08:40 | 50.04366 | 8.56833 | 363 ft | 13 kts | 11° |
| 2026-05-06 08:40 | 50.04464 | 8.56859 | 359 ft | 15 kts | 11° |
| 2026-05-06 08:40 | 50.04566 | 8.56896 | 358 ft | 14 kts | 14° |
| 2026-05-06 08:40 | 50.04640 | 8.56927 | 356 ft | 8 kts | 19° |
| 2026-05-06 08:41 | 50.04685 | 8.56904 | 360 ft | 4 kts | 309° |
| 2026-05-06 08:41 | 50.04698 | 8.56864 | 361 ft | 3 kts | 295° |
| 2026-05-06 08:41 | 50.04704 | 8.56844 | 362 ft | 1 kts | 294° |